Terminal Aerodrome Forecast
Issued by NWS

Home | Current Version | Previous Version | Text Only | Print | Product List | Glossary On
Versions: 1 2 3 4 5 6 7 8 9 10 11 12 13 14 15 16 17 18 19 20 21 22 23 24 25 26 27 28 29 30 31 32 33 34 35 36 37 38 39 40 41 42 43 44 45 46 47
280
FTUS44 KHGX 200529
TAFIAH
TAF
KIAH 200529Z 2006/2112 12010KT 2SM BR VCSH OVC003
     FM200900 15005KT 1SM BR VCSH OVC003
     FM201500 18007KT 4SM BR VCSH BKN007 OVC010
     FM201800 17009G18KT P6SM VCSH OVC015
     FM210000 16010KT 6SM BR VCSH OVC007
     FM210300 16008KT 2SM BR VCSH OVC005=

USA.gov is the U.S. government's official web portal to all federal, state and local government web resources and services.